Folsom, Pennsylvania
Current Conditions -  °F | °C
As of 1:54 AM on Monday 22 Dec 2014 (Local Time) from KPHL Reporting Station
Few Clouds Few Clouds  
Wind Chill: 22°   Ceiling: Unl
Heat Index: 28°   Visibility: 10mi
Dew Point: 21°   Wind: 6mph
Humidity: 75%   Direction: 330°NNW
Pressure: 30.35"   Gusts: NA
Location:  39.89°N, 75.33°W
Report Text: KPHL 220654Z 33005KT 10SM FEW030 FEW250 M02/M06 A3035 RMK AO2 SLP276 T10221061
Loading
Personal Weather Stations






























Interactive Weather Map New forecast layout! Learn more

10-Day Weather Forecast

Advertisements
Track Severe Weather on mobile